PILOTS ONLINE: 225    ATC ONLINE: 20

Location

City San Diego
Country  United States
Latitude 32° 34' 20" N
Longitude 116° 58' 48" W
Elevation 526 ft
Type Medium Airport

Weather

METAR
2014/07/11 08:53
KSDM 110853Z AUTO 00000KT 10SM OVC011 19/16 A2996 RMK AO2 SLP141 T01890161 58001 
TAF
No TAF available

Runways

08L/26R 7972 ft / 150 ft
08R/26L 3180 ft / 75 ft

Outbound flights

Inbound flights


Spotted incorrect airport information? Please login with your VATSIM ID.